sensor_id;sensor_type;location;lat;lon;timestamp;pressure;altitude;pressure_sealevel;temperature;humidity
67099;BME280;54288;53.046;5.668;2023-07-13T00:00:25;101322.09;;;17.75;94.11
67099;BME280;54288;53.046;5.668;2023-07-13T00:02:51;101330.78;;;17.78;94.14
67099;BME280;54288;53.046;5.668;2023-07-13T00:05:23;101321.31;;;17.73;94.27
67099;BME280;54288;53.046;5.668;2023-07-13T00:07:50;101323.94;;;17.73;94.15
67099;BME280;54288;53.046;5.668;2023-07-13T00:10:16;101327.78;;;17.66;94.52
67099;BME280;54288;53.046;5.668;2023-07-13T00:12:43;101324.31;;;17.64;94.09
67099;BME280;54288;53.046;5.668;2023-07-13T00:15:16;101319.16;;;17.61;93.94
67099;BME280;54288;53.046;5.668;2023-07-13T00:17:42;101320.88;;;17.62;93.62
67099;BME280;54288;53.046;5.668;2023-07-13T00:20:11;101315.53;;;17.63;92.93
67099;BME280;54288;53.046;5.668;2023-07-13T00:22:37;101327.03;;;17.62;92.34
67099;BME280;54288;53.046;5.668;2023-07-13T00:25:03;101325.38;;;17.60;92.42
67099;BME280;54288;53.046;5.668;2023-07-13T00:27:29;101328.16;;;17.57;93.82
67099;BME280;54288;53.046;5.668;2023-07-13T00:29:58;101331.78;;;17.54;94.75
67099;BME280;54288;53.046;5.668;2023-07-13T00:32:24;101332.59;;;17.56;95.18
67099;BME280;54288;53.046;5.668;2023-07-13T00:34:57;101325.47;;;17.58;95.52
67099;BME280;54288;53.046;5.668;2023-07-13T00:37:25;101327.38;;;17.55;96.71
67099;BME280;54288;53.046;5.668;2023-07-13T00:39:51;101332.59;;;17.56;97.34
67099;BME280;54288;53.046;5.668;2023-07-13T00:42:17;101334.38;;;17.56;97.95
67099;BME280;54288;53.046;5.668;2023-07-13T00:46:08;101329.19;;;17.53;98.18
67099;BME280;54288;53.046;5.668;2023-07-13T00:47:53;101323.22;;;17.48;98.94
67099;BME280;54288;53.046;5.668;2023-07-13T00:50:22;101322.38;;;17.47;99.14
67099;BME280;54288;53.046;5.668;2023-07-13T00:52:53;101321.91;;;17.38;99.97
67099;BME280;54288;53.046;5.668;2023-07-13T00:55:22;101321.94;;;17.36;100.00
67099;BME280;54288;53.046;5.668;2023-07-13T00:57:48;101324.56;;;17.36;100.00
67099;BME280;54288;53.046;5.668;2023-07-13T01:00:14;101330.06;;;17.32;100.00
67099;BME280;54288;53.046;5.668;2023-07-13T01:02:44;101324.00;;;17.28;100.00
67099;BME280;54288;53.046;5.668;2023-07-13T01:05:13;101334.69;;;17.27;100.00
67099;BME280;54288;53.046;5.668;2023-07-13T01:07:41;101327.72;;;17.24;100.00
67099;BME280;54288;53.046;5.668;2023-07-13T01:10:08;101334.84;;;17.22;100.00
67099;BME280;54288;53.046;5.668;2023-07-13T01:12:33;101328.81;;;17.19;100.00
67099;BME280;54288;53.046;5.668;2023-07-13T01:15:01;101341.19;;;17.18;100.00
67099;BME280;54288;53.046;5.668;2023-07-13T01:17:28;101343.25;;;17.10;100.00
67099;BME280;54288;53.046;5.668;2023-07-13T01:19:54;101335.50;;;17.06;100.00
67099;BME280;54288;53.046;5.668;2023-07-13T01:22:23;101344.38;;;17.05;100.00
67099;BME280;54288;53.046;5.668;2023-07-13T01:24:53;101342.66;;;17.04;100.00
67099;BME280;54288;53.046;5.668;2023-07-13T01:27:25;101333.22;;;16.97;100.00
67099;BME280;54288;53.046;5.668;2023-07-13T01:29:52;101328.16;;;16.91;100.00
67099;BME280;54288;53.046;5.668;2023-07-13T01:32:21;101319.44;;;16.89;100.00
67099;BME280;54288;53.046;5.668;2023-07-13T01:34:51;101319.53;;;16.86;100.00
67099;BME280;54288;53.046;5.668;2023-07-13T01:37:20;101324.09;;;16.82;100.00
67099;BME280;54288;53.046;5.668;2023-07-13T01:39:46;101327.41;;;16.87;100.00
67099;BME280;54288;53.046;5.668;2023-07-13T01:42:13;101332.56;;;16.92;100.00
67099;BME280;54288;53.046;5.668;2023-07-13T01:44:38;101331.78;;;16.88;100.00
67099;BME280;54288;53.046;5.668;2023-07-13T01:47:04;101319.63;;;16.84;100.00
67099;BME280;54288;53.046;5.668;2023-07-13T01:49:30;101327.47;;;16.86;100.00
67099;BME280;54288;53.046;5.668;2023-07-13T01:51:56;101323.97;;;16.85;100.00
67099;BME280;54288;53.046;5.668;2023-07-13T01:54:21;101326.88;;;16.79;100.00
67099;BME280;54288;53.046;5.668;2023-07-13T01:56:50;101325.84;;;16.83;100.00
67099;BME280;54288;53.046;5.668;2023-07-13T01:59:16;101325.84;;;16.83;100.00
67099;BME280;54288;53.046;5.668;2023-07-13T02:01:41;101329.31;;;16.84;100.00
67099;BME280;54288;53.046;5.668;2023-07-13T02:04:07;101326.81;;;16.81;100.00
67099;BME280;54288;53.046;5.668;2023-07-13T02:06:33;101329.56;;;16.78;100.00
67099;BME280;54288;53.046;5.668;2023-07-13T02:08:59;101327.84;;;16.77;100.00
67099;BME280;54288;53.046;5.668;2023-07-13T02:11:25;101325.28;;;16.74;100.00
67099;BME280;54288;53.046;5.668;2023-07-13T02:14:02;101333.13;;;16.77;100.00
67099;BME280;54288;53.046;5.668;2023-07-13T02:16:29;101331.41;;;16.76;100.00
67099;BME280;54288;53.046;5.668;2023-07-13T02:18:55;101325.25;;;16.75;100.00
67099;BME280;54288;53.046;5.668;2023-07-13T02:21:22;101331.31;;;16.77;100.00
67099;BME280;54288;53.046;5.668;2023-07-13T02:23:51;101327.84;;;16.77;100.00
67099;BME280;54288;53.046;5.668;2023-07-13T02:26:18;101334.97;;;16.75;100.00
67099;BME280;54288;53.046;5.668;2023-07-13T02:28:43;101337.72;;;16.72;100.00
67099;BME280;54288;53.046;5.668;2023-07-13T02:31:13;101344.69;;;16.74;100.00
67099;BME280;54288;53.046;5.668;2023-07-13T02:33:38;101343.81;;;16.74;100.00
67099;BME280;54288;53.046;5.668;2023-07-13T02:36:05;101342.09;;;16.73;100.00
67099;BME280;54288;53.046;5.668;2023-07-13T02:38:35;101345.56;;;16.75;100.00
67099;BME280;54288;53.046;5.668;2023-07-13T02:41:03;101344.63;;;16.76;100.00
67099;BME280;54288;53.046;5.668;2023-07-13T02:43:29;101328.69;;;16.77;100.00
67099;BME280;54288;53.046;5.668;2023-07-13T02:45:55;101333.88;;;16.80;100.00
67099;BME280;54288;53.046;5.668;2023-07-13T02:48:21;101324.22;;;16.79;100.00
67099;BME280;54288;53.046;5.668;2023-07-13T02:50:46;101331.28;;;16.79;100.00
67099;BME280;54288;53.046;5.668;2023-07-13T02:53:12;101336.50;;;16.80;100.00
67099;BME280;54288;53.046;5.668;2023-07-13T02:55:38;101337.41;;;16.81;100.00
67099;BME280;54288;53.046;5.668;2023-07-13T02:58:07;101335.72;;;16.78;100.00
67099;BME280;54288;53.046;5.668;2023-07-13T03:00:32;101336.56;;;16.79;100.00
67099;BME280;54288;53.046;5.668;2023-07-13T03:02:58;101336.56;;;16.79;100.00
67099;BME280;54288;53.046;5.668;2023-07-13T03:05:25;101349.78;;;16.79;100.00
67099;BME280;54288;53.046;5.668;2023-07-13T03:07:50;101341.16;;;16.74;100.00
67099;BME280;54288;53.046;5.668;2023-07-13T03:10:17;101342.84;;;16.76;100.00
67099;BME280;54288;53.046;5.668;2023-07-13T03:12:47;101342.13;;;16.71;100.00
67099;BME280;54288;53.046;5.668;2023-07-13T03:15:21;101348.25;;;16.73;100.00
67099;BME280;54288;53.046;5.668;2023-07-13T03:17:48;101352.63;;;16.74;100.00
67099;BME280;54288;53.046;5.668;2023-07-13T03:20:15;101348.25;;;16.73;100.00
67099;BME280;54288;53.046;5.668;2023-07-13T03:22:41;101347.34;;;16.74;100.00
67099;BME280;54288;53.046;5.668;2023-07-13T03:25:08;101348.22;;;16.75;100.00
67099;BME280;54288;53.046;5.668;2023-07-13T03:27:33;101356.25;;;16.72;100.00
67099;BME280;54288;53.046;5.668;2023-07-13T03:29:59;101350.16;;;16.70;100.00
67099;BME280;54288;53.046;5.668;2023-07-13T03:32:25;101351.00;;;16.70;100.00
67099;BME280;54288;53.046;5.668;2023-07-13T03:34:51;101351.19;;;16.66;100.00
67099;BME280;54288;53.046;5.668;2023-07-13T03:37:16;101357.25;;;16.68;100.00
67099;BME280;54288;53.046;5.668;2023-07-13T03:39:42;101360.84;;;16.67;100.00
67099;BME280;54288;53.046;5.668;2023-07-13T03:42:08;101359.13;;;16.66;100.00
67099;BME280;54288;53.046;5.668;2023-07-13T03:44:35;101363.72;;;16.61;100.00
67099;BME280;54288;53.046;5.668;2023-07-13T03:47:00;101361.00;;;16.62;100.00
67099;BME280;54288;53.046;5.668;2023-07-13T03:49:26;101367.16;;;16.63;100.00
67099;BME280;54288;53.046;5.668;2023-07-13T03:51:52;101370.75;;;16.60;100.00
67099;BME280;54288;53.046;5.668;2023-07-13T03:54:18;101367.31;;;16.58;100.00
67099;BME280;54288;53.046;5.668;2023-07-13T03:56:44;101375.22;;;16.60;100.00
67099;BME280;54288;53.046;5.668;2023-07-13T03:59:10;101376.13;;;16.59;100.00
67099;BME280;54288;53.046;5.668;2023-07-13T04:01:35;101376.94;;;16.61;100.00
67099;BME280;54288;53.046;5.668;2023-07-13T04:04:01;101372.63;;;16.58;100.00
67099;BME280;54288;53.046;5.668;2023-07-13T04:06:29;101378.78;;;16.59;100.00
67099;BME280;54288;53.046;5.668;2023-07-13T04:08:58;101373.50;;;16.59;100.00
67099;BME280;54288;53.046;5.668;2023-07-13T04:11:27;101376.94;;;16.61;100.00
67099;BME280;54288;53.046;5.668;2023-07-13T04:13:54;101378.59;;;16.63;100.00
67099;BME280;54288;53.046;5.668;2023-07-13T04:16:20;101382.13;;;16.64;100.00
67099;BME280;54288;53.046;5.668;2023-07-13T04:18:47;101388.06;;;16.69;100.00
67099;BME280;54288;53.046;5.668;2023-07-13T04:21:13;101399.34;;;16.74;100.00
67099;BME280;54288;53.046;5.668;2023-07-13T04:23:40;101394.91;;;16.76;100.00
67099;BME280;54288;53.046;5.668;2023-07-13T04:26:06;101394.72;;;16.80;100.00
67099;BME280;54288;53.046;5.668;2023-07-13T04:28:33;101400.81;;;16.82;100.00
67099;BME280;54288;53.046;5.668;2023-07-13T04:30:59;101401.53;;;16.86;100.00
67099;BME280;54288;53.046;5.668;2023-07-13T04:33:26;101395.28;;;16.88;100.00
67099;BME280;54288;53.046;5.668;2023-07-13T04:35:53;101400.34;;;16.94;100.00
67099;BME280;54288;53.046;5.668;2023-07-13T04:38:28;101400.28;;;16.96;100.00
67099;BME280;54288;53.046;5.668;2023-07-13T04:40:56;101403.63;;;17.01;100.00
67099;BME280;54288;53.046;5.668;2023-07-13T04:43:23;101405.19;;;17.06;100.00
67099;BME280;54288;53.046;5.668;2023-07-13T04:45:51;101414.66;;;17.12;100.00
67099;BME280;54288;53.046;5.668;2023-07-13T04:48:16;101414.44;;;17.18;100.00
67099;BME280;54288;53.046;5.668;2023-07-13T04:50:42;101415.88;;;17.26;100.00
67099;BME280;54288;53.046;5.668;2023-07-13T04:53:09;101416.50;;;17.33;100.00
67099;BME280;54288;53.046;5.668;2023-07-13T04:55:37;101415.41;;;17.38;100.00
67099;BME280;54288;53.046;5.668;2023-07-13T04:58:02;101431.94;;;17.45;100.00
67099;BME280;54288;53.046;5.668;2023-07-13T05:00:29;101422.97;;;17.49;100.00
67099;BME280;54288;53.046;5.668;2023-07-13T05:02:57;101425.41;;;17.53;100.00
67099;BME280;54288;53.046;5.668;2023-07-13T05:05:25;101430.53;;;17.58;100.00
67099;BME280;54288;53.046;5.668;2023-07-13T05:07:51;101428.56;;;17.63;100.00
67099;BME280;54288;53.046;5.668;2023-07-13T05:10:17;101428.22;;;17.72;100.00
67099;BME280;54288;53.046;5.668;2023-07-13T05:12:43;101430.25;;;17.85;100.00
67099;BME280;54288;53.046;5.668;2023-07-13T05:15:10;101435.94;;;17.98;100.00
67099;BME280;54288;53.046;5.668;2023-07-13T05:17:36;101429.53;;;18.03;100.00
67099;BME280;54288;53.046;5.668;2023-07-13T05:20:02;101428.41;;;18.09;100.00
67099;BME280;54288;53.046;5.668;2023-07-13T05:22:28;101441.09;;;18.22;100.00
67099;BME280;54288;53.046;5.668;2023-07-13T05:24:53;101437.81;;;18.77;100.00
67099;BME280;54288;53.046;5.668;2023-07-13T05:27:19;101437.13;;;19.85;100.00
67099;BME280;54288;53.046;5.668;2023-07-13T05:29:45;101439.47;;;20.60;98.40
67099;BME280;54288;53.046;5.668;2023-07-13T05:32:11;101442.72;;;20.99;94.44
67099;BME280;54288;53.046;5.668;2023-07-13T05:34:36;101446.09;;;20.69;94.54
67099;BME280;54288;53.046;5.668;2023-07-13T05:37:02;101446.97;;;20.18;96.99
67099;BME280;54288;53.046;5.668;2023-07-13T05:39:28;101450.00;;;19.75;99.02
67099;BME280;54288;53.046;5.668;2023-07-13T05:41:53;101449.44;;;19.50;100.00
67099;BME280;54288;53.046;5.668;2023-07-13T05:44:19;101452.19;;;19.30;100.00
67099;BME280;54288;53.046;5.668;2023-07-13T05:46:45;101451.09;;;18.96;100.00
67099;BME280;54288;53.046;5.668;2023-07-13T05:49:11;101450.25;;;18.75;100.00
67099;BME280;54288;53.046;5.668;2023-07-13T05:51:36;101444.50;;;18.66;100.00
67099;BME280;54288;53.046;5.668;2023-07-13T05:54:02;101460.69;;;18.60;100.00
67099;BME280;54288;53.046;5.668;2023-07-13T05:56:28;101451.28;;;18.53;100.00
67099;BME280;54288;53.046;5.668;2023-07-13T05:58:54;101452.75;;;18.40;100.00
67099;BME280;54288;53.046;5.668;2023-07-13T06:01:20;101449.28;;;18.58;100.00
67099;BME280;54288;53.046;5.668;2023-07-13T06:03:47;101455.84;;;19.08;100.00
67099;BME280;54288;53.046;5.668;2023-07-13T06:06:14;101456.81;;;20.16;100.00
67099;BME280;54288;53.046;5.668;2023-07-13T06:08:40;101453.81;;;21.23;90.93
67099;BME280;54288;53.046;5.668;2023-07-13T06:11:15;101455.53;;;21.72;87.98
67099;BME280;54288;53.046;5.668;2023-07-13T06:13:40;101450.00;;;22.65;81.57
67099;BME280;54288;53.046;5.668;2023-07-13T06:16:07;101450.44;;;23.43;74.72
67099;BME280;54288;53.046;5.668;2023-07-13T06:18:35;101464.47;;;23.46;72.27
67099;BME280;54288;53.046;5.668;2023-07-13T06:21:09;101459.56;;;23.11;72.51
67099;BME280;54288;53.046;5.668;2023-07-13T06:23:36;101463.69;;;23.58;73.33
67099;BME280;54288;53.046;5.668;2023-07-13T06:26:03;101451.88;;;24.15;70.99
67099;BME280;54288;53.046;5.668;2023-07-13T06:28:30;101448.34;;;24.15;67.22
67099;BME280;54288;53.046;5.668;2023-07-13T06:30:57;101461.00;;;23.02;69.65
67099;BME280;54288;53.046;5.668;2023-07-13T06:33:23;101462.63;;;22.18;74.73
67099;BME280;54288;53.046;5.668;2023-07-13T06:35:49;101470.03;;;21.51;77.90
67099;BME280;54288;53.046;5.668;2023-07-13T06:38:15;101473.66;;;21.02;81.25
67099;BME280;54288;53.046;5.668;2023-07-13T06:40:41;101484.84;;;20.57;84.63
67099;BME280;54288;53.046;5.668;2023-07-13T06:43:06;101483.38;;;20.69;87.28
67099;BME280;54288;53.046;5.668;2023-07-13T06:45:39;101480.69;;;21.51;82.24
67099;BME280;54288;53.046;5.668;2023-07-13T06:48:05;101492.59;;;21.92;80.78
67099;BME280;54288;53.046;5.668;2023-07-13T06:50:31;101499.19;;;21.54;76.07
67099;BME280;54288;53.046;5.668;2023-07-13T06:52:56;101491.63;;;21.14;79.11
67099;BME280;54288;53.046;5.668;2023-07-13T06:55:22;101496.28;;;21.10;79.15
67099;BME280;54288;53.046;5.668;2023-07-13T06:57:48;101501.72;;;20.92;80.40
67099;BME280;54288;53.046;5.668;2023-07-13T07:00:14;101500.88;;;21.07;79.91
67099;BME280;54288;53.046;5.668;2023-07-13T07:02:40;101501.44;;;21.29;78.26
67099;BME280;54288;53.046;5.668;2023-07-13T07:05:06;101499.63;;;21.14;80.33
67099;BME280;54288;53.046;5.668;2023-07-13T07:07:31;101503.72;;;20.87;79.69
67099;BME280;54288;53.046;5.668;2023-07-13T07:09:57;101513.09;;;20.77;81.93
67099;BME280;54288;53.046;5.668;2023-07-13T07:12:22;101510.00;;;21.03;82.15
67099;BME280;54288;53.046;5.668;2023-07-13T07:14:48;101515.06;;;21.55;80.95
67099;BME280;54288;53.046;5.668;2023-07-13T07:17:14;101514.59;;;21.64;76.77
67099;BME280;54288;53.046;5.668;2023-07-13T07:19:39;101513.47;;;21.53;79.31
67099;BME280;54288;53.046;5.668;2023-07-13T07:22:06;101519.25;;;21.76;77.23
67099;BME280;54288;53.046;5.668;2023-07-13T07:24:31;101517.59;;;21.58;76.39
67099;BME280;54288;53.046;5.668;2023-07-13T07:26:57;101513.91;;;21.61;76.54
67099;BME280;54288;53.046;5.668;2023-07-13T07:29:23;101519.53;;;21.39;73.45
67099;BME280;54288;53.046;5.668;2023-07-13T07:31:52;101521.97;;;21.11;75.99
67099;BME280;54288;53.046;5.668;2023-07-13T07:34:18;101512.75;;;21.49;75.52
67099;BME280;54288;53.046;5.668;2023-07-13T07:36:43;101510.25;;;22.39;72.29
67099;BME280;54288;53.046;5.668;2023-07-13T07:39:09;101505.78;;;23.13;68.18
67099;BME280;54288;53.046;5.668;2023-07-13T07:41:34;101502.88;;;22.88;64.55
67099;BME280;54288;53.046;5.668;2023-07-13T07:44:00;101513.25;;;22.64;66.02
67099;BME280;54288;53.046;5.668;2023-07-13T07:46:26;101513.06;;;22.07;69.23
67099;BME280;54288;53.046;5.668;2023-07-13T07:48:51;101516.38;;;21.64;71.62
67099;BME280;54288;53.046;5.668;2023-07-13T07:51:17;101519.78;;;21.35;73.24
67099;BME280;54288;53.046;5.668;2023-07-13T07:53:43;101515.00;;;21.09;74.21
67099;BME280;54288;53.046;5.668;2023-07-13T07:56:08;101513.78;;;21.79;73.62
67099;BME280;54288;53.046;5.668;2023-07-13T07:58:35;101518.91;;;21.82;72.65
67099;BME280;54288;53.046;5.668;2023-07-13T08:01:05;101518.06;;;21.97;71.25
67099;BME280;54288;53.046;5.668;2023-07-13T08:03:31;101507.94;;;22.49;69.96
67099;BME280;54288;53.046;5.668;2023-07-13T08:05:57;101507.09;;;22.78;63.96
67099;BME280;54288;53.046;5.668;2023-07-13T08:08:24;101522.28;;;22.17;63.79
67099;BME280;54288;53.046;5.668;2023-07-13T08:10:49;101521.66;;;21.81;69.14
67099;BME280;54288;53.046;5.668;2023-07-13T08:13:15;101504.56;;;22.61;66.12
67099;BME280;54288;53.046;5.668;2023-07-13T08:15:41;101504.97;;;23.40;62.16
67099;BME280;54288;53.046;5.668;2023-07-13T08:18:07;101516.38;;;23.14;60.32
67099;BME280;54288;53.046;5.668;2023-07-13T08:20:40;101515.25;;;22.75;61.41
67099;BME280;54288;53.046;5.668;2023-07-13T08:23:09;101514.06;;;22.94;62.38
67099;BME280;54288;53.046;5.668;2023-07-13T08:25:35;101522.81;;;23.54;58.51
67099;BME280;54288;53.046;5.668;2023-07-13T08:28:02;101530.78;;;23.96;58.30
67099;BME280;54288;53.046;5.668;2023-07-13T08:30:28;101520.09;;;24.22;56.56
67099;BME280;54288;53.046;5.668;2023-07-13T08:32:54;101522.53;;;24.13;52.70
67099;BME280;54288;53.046;5.668;2023-07-13T08:35:20;101522.72;;;24.36;54.73
67099;BME280;54288;53.046;5.668;2023-07-13T08:37:46;101530.66;;;24.77;53.12
67099;BME280;54288;53.046;5.668;2023-07-13T08:40:12;101522.97;;;24.85;48.83
67099;BME280;54288;53.046;5.668;2023-07-13T08:42:45;101521.81;;;25.01;49.69
67099;BME280;54288;53.046;5.668;2023-07-13T08:47:51;101535.28;;;24.75;49.88
67099;BME280;54288;53.046;5.668;2023-07-13T08:50:24;101528.81;;;24.38;49.54
67099;BME280;54288;53.046;5.668;2023-07-13T08:52:52;101533.38;;;23.83;53.80
67099;BME280;54288;53.046;5.668;2023-07-13T08:55:26;101537.56;;;24.01;53.71
67099;BME280;54288;53.046;5.668;2023-07-13T08:58:12;101537.50;;;24.42;53.85
67099;BME280;54288;53.046;5.668;2023-07-13T09:00:52;101543.00;;;24.79;50.95
67099;BME280;54288;53.046;5.668;2023-07-13T09:03:29;101540.88;;;24.72;50.38
67099;BME280;54288;53.046;5.668;2023-07-13T09:06:00;101539.84;;;25.12;50.71
67099;BME280;54288;53.046;5.668;2023-07-13T09:11:28;101550.94;;;24.54;50.55
67099;BME280;54288;53.046;5.668;2023-07-13T09:16:53;101550.22;;;25.04;50.36
67099;BME280;54288;53.046;5.668;2023-07-13T09:19:28;101546.59;;;25.55;48.80
67099;BME280;54288;53.046;5.668;2023-07-13T09:21:55;101546.16;;;26.22;47.62
67099;BME280;54288;53.046;5.668;2023-07-13T09:26:50;101561.44;;;25.60;49.34
67099;BME280;54288;53.046;5.668;2023-07-13T09:29:33;101548.41;;;25.67;48.60
67099;BME280;54288;53.046;5.668;2023-07-13T09:32:09;101566.22;;;25.93;45.94
67099;BME280;54288;53.046;5.668;2023-07-13T09:34:37;101567.72;;;25.97;47.24
67099;BME280;54288;53.046;5.668;2023-07-13T09:37:03;101560.22;;;25.64;47.04
67099;BME280;54288;53.046;5.668;2023-07-13T09:39:34;101560.94;;;26.04;45.95
67099;BME280;54288;53.046;5.668;2023-07-13T09:44:35;101570.91;;;26.02;46.06
67099;BME280;54288;53.046;5.668;2023-07-13T09:47:03;101570.03;;;26.14;45.31
67099;BME280;54288;53.046;5.668;2023-07-13T09:49:34;101575.59;;;26.23;46.47
67099;BME280;54288;53.046;5.668;2023-07-13T09:52:03;101576.38;;;26.36;44.88
67099;BME280;54288;53.046;5.668;2023-07-13T09:54:33;101581.13;;;26.33;44.91
67099;BME280;54288;53.046;5.668;2023-07-13T09:57:00;101583.31;;;25.92;47.68
67099;BME280;54288;53.046;5.668;2023-07-13T09:59:33;101573.75;;;25.50;47.97
67099;BME280;54288;53.046;5.668;2023-07-13T10:01:59;101587.00;;;26.02;47.29
67099;BME280;54288;53.046;5.668;2023-07-13T10:04:32;101588.44;;;25.70;47.39
67099;BME280;54288;53.046;5.668;2023-07-13T10:07:07;101580.59;;;25.67;50.27
67099;BME280;54288;53.046;5.668;2023-07-13T10:09:33;101583.94;;;25.33;49.34
67099;BME280;54288;53.046;5.668;2023-07-13T10:12:00;101584.78;;;24.69;50.95
67099;BME280;54288;53.046;5.668;2023-07-13T10:14:28;101595.91;;;24.23;51.81
67099;BME280;54288;53.046;5.668;2023-07-13T10:17:03;101596.53;;;24.00;53.68
67099;BME280;54288;53.046;5.668;2023-07-13T10:19:34;101590.41;;;24.12;52.42
67099;BME280;54288;53.046;5.668;2023-07-13T10:22:05;101599.47;;;24.50;51.98
67099;BME280;54288;53.046;5.668;2023-07-13T10:24:39;101595.59;;;24.68;49.88
67099;BME280;54288;53.046;5.668;2023-07-13T10:27:18;101603.16;;;25.27;48.59
67099;BME280;54288;53.046;5.668;2023-07-13T10:29:52;101610.91;;;25.69;48.94
67099;BME280;54288;53.046;5.668;2023-07-13T10:32:21;101602.69;;;25.83;46.34
67099;BME280;54288;53.046;5.668;2023-07-13T10:34:50;101603.09;;;25.02;47.89
67099;BME280;54288;53.046;5.668;2023-07-13T10:37:27;101621.25;;;24.31;49.07
67099;BME280;54288;53.046;5.668;2023-07-13T10:39:57;101611.59;;;24.29;50.24
67099;BME280;54288;53.046;5.668;2023-07-13T10:42:42;101615.28;;;24.00;52.02
67099;BME280;54288;53.046;5.668;2023-07-13T10:45:18;101610.84;;;23.85;51.90
67099;BME280;54288;53.046;5.668;2023-07-13T10:47:46;101622.31;;;23.73;53.03
67099;BME280;54288;53.046;5.668;2023-07-13T10:50:23;101623.97;;;24.03;51.10
67099;BME280;54288;53.046;5.668;2023-07-13T10:52:52;101623.97;;;23.61;52.32
67099;BME280;54288;53.046;5.668;2023-07-13T11:03:32;101632.84;;;23.76;51.18
67099;BME280;54288;53.046;5.668;2023-07-13T11:06:33;101634.38;;;23.66;51.02
67099;BME280;54288;53.046;5.668;2023-07-13T11:11:47;101626.94;;;25.19;50.51
67099;BME280;54288;53.046;5.668;2023-07-13T11:14:35;101637.25;;;25.25;48.64
67099;BME280;54288;53.046;5.668;2023-07-13T11:28:02;101655.88;;;25.65;46.99
67099;BME280;54288;53.046;5.668;2023-07-13T11:36:03;101652.09;;;25.68;46.47
67099;BME280;54288;53.046;5.668;2023-07-13T11:38:39;101662.28;;;25.88;45.63
67099;BME280;54288;53.046;5.668;2023-07-13T11:41:19;101663.66;;;26.31;44.91
67099;BME280;54288;53.046;5.668;2023-07-13T11:43:49;101652.22;;;26.40;43.41
67099;BME280;54288;53.046;5.668;2023-07-13T11:46:26;101662.28;;;26.13;42.84
67099;BME280;54288;53.046;5.668;2023-07-13T11:48:53;101663.78;;;26.04;43.23
67099;BME280;54288;53.046;5.668;2023-07-13T11:51:30;101666.06;;;25.60;45.37
67099;BME280;54288;53.046;5.668;2023-07-13T11:54:01;101661.97;;;26.05;45.41
67099;BME280;54288;53.046;5.668;2023-07-13T11:56:28;101667.66;;;25.75;43.81
67099;BME280;54288;53.046;5.668;2023-07-13T11:58:56;101681.16;;;25.10;44.63
67099;BME280;54288;53.046;5.668;2023-07-13T12:01:30;101667.78;;;25.74;44.30
67099;BME280;54288;53.046;5.668;2023-07-13T12:04:25;101669.38;;;25.89;43.84
67099;BME280;54288;53.046;5.668;2023-07-13T12:07:16;101684.72;;;25.62;43.42
67099;BME280;54288;53.046;5.668;2023-07-13T12:09:43;101684.06;;;25.46;44.13
67099;BME280;54288;53.046;5.668;2023-07-13T12:12:19;101682.13;;;25.48;44.12
67099;BME280;54288;53.046;5.668;2023-07-13T12:14:45;101668.44;;;26.02;44.26
67099;BME280;54288;53.046;5.668;2023-07-13T12:17:20;101674.00;;;26.12;43.90
67099;BME280;54288;53.046;5.668;2023-07-13T12:19:48;101672.84;;;25.91;44.42
67099;BME280;54288;53.046;5.668;2023-07-13T12:22:16;101678.59;;;25.60;45.54
67099;BME280;54288;53.046;5.668;2023-07-13T12:24:44;101670.31;;;26.13;47.04
67099;BME280;54288;53.046;5.668;2023-07-13T12:27:23;101681.78;;;26.27;41.78
67099;BME280;54288;53.046;5.668;2023-07-13T12:29:52;101683.41;;;26.30;44.00
67099;BME280;54288;53.046;5.668;2023-07-13T12:32:19;101686.06;;;26.55;44.25
67099;BME280;54288;53.046;5.668;2023-07-13T12:35:15;101684.34;;;26.54;42.07
67099;BME280;54288;53.046;5.668;2023-07-13T12:37:43;101687.06;;;26.29;44.93
67099;BME280;54288;53.046;5.668;2023-07-13T12:40:17;101688.28;;;26.12;46.07
67099;BME280;54288;53.046;5.668;2023-07-13T12:42:51;101683.22;;;26.20;44.34
67099;BME280;54288;53.046;5.668;2023-07-13T12:47:48;101689.00;;;26.27;44.62
67099;BME280;54288;53.046;5.668;2023-07-13T12:50:17;101697.63;;;25.82;45.98
67099;BME280;54288;53.046;5.668;2023-07-13T12:52:44;101696.09;;;25.78;44.43
67099;BME280;54288;53.046;5.668;2023-07-13T12:55:18;101689.38;;;25.97;47.72
67099;BME280;54288;53.046;5.668;2023-07-13T12:57:56;101687.50;;;26.35;46.35
67099;BME280;54288;53.046;5.668;2023-07-13T13:02:55;101694.22;;;26.41;46.55
67099;BME280;54288;53.046;5.668;2023-07-13T13:05:25;101691.78;;;26.38;45.19
67099;BME280;54288;53.046;5.668;2023-07-13T13:07:52;101692.25;;;26.07;45.74
67099;BME280;54288;53.046;5.668;2023-07-13T13:10:18;101702.97;;;25.82;46.98
67099;BME280;54288;53.046;5.668;2023-07-13T13:12:44;101700.22;;;25.96;46.81
67099;BME280;54288;53.046;5.668;2023-07-13T13:15:11;101706.94;;;25.89;45.82
67099;BME280;54288;53.046;5.668;2023-07-13T13:17:42;101698.44;;;25.45;46.59
67099;BME280;54288;53.046;5.668;2023-07-13T13:20:21;101715.06;;;25.50;47.55
67099;BME280;54288;53.046;5.668;2023-07-13T13:22:51;101715.94;;;25.50;48.11
67099;BME280;54288;53.046;5.668;2023-07-13T13:25:18;101708.34;;;25.57;49.37
67099;BME280;54288;53.046;5.668;2023-07-13T13:27:50;101718.97;;;25.83;50.19
67099;BME280;54288;53.046;5.668;2023-07-13T13:30:17;101720.34;;;25.76;48.22
67099;BME280;54288;53.046;5.668;2023-07-13T13:32:46;101714.69;;;25.93;46.20
67099;BME280;54288;53.046;5.668;2023-07-13T13:35:17;101719.84;;;25.71;46.70
67099;BME280;54288;53.046;5.668;2023-07-13T13:37:44;101721.84;;;25.68;49.02